SAVT/REL METAR and TAF weather

Enter ICAO airport designator
Station Type Date Time Source
SAVT METAR 2020/01/23 11:45 UTC NOAA

SAVT 231145Z 25006KT 9999 TS FEW040CB 21/10 Q1007


Station Type Date Time Source
SAVT Decoded METAR 2020/01/23 11:45 UTC NOAA

Trelew Aerodrome, Argentina (SAVT) 43-12S 065-16W 43M
Jan 23, 2020 - 06:45 AM EST / 2020.01.23 1145 UTC
Wind: from the WSW (250 degrees) at 7 MPH (6 KT):0
Visibility: greater than 7 mile(s):0
Sky conditions: mostly clear
Weather: thunder; Cumulonimbus clouds observed
Temperature: 69 F (21 C)
Dew Point: 50 F (10 C)
Relative Humidity: 49%
Pressure (altimeter): 29.74 in. Hg (1007 hPa)
ob: SAVT 231145Z 25006KT 9999 TS FEW040CB 21/10 Q1007
cycle: 12

Station Type Date Time Source
SAVT TAF 2019/04/29 08:53 UTC NOAA

TAF
AMD SAVT 290800Z 2908/3006 27025G40KT 9999 SCT020 BKN035 TX16/2919Z TN07/3006Z
TEMPO 2911/2914 7000 -SHRA OVC020 SCT030
BECMG 3002/3004 25015KT

Example: see airport list